sensor_id;sensor_type;location;lat;lon;timestamp;P1;durP1;ratioP1;P2;durP2;ratioP2
74577;SDS011;63173;49.086;33.418;2023-03-03T00:00:56;15.35;;;5.28;;
74577;SDS011;63173;49.086;33.418;2023-03-03T00:03:22;11.68;;;4.55;;
74577;SDS011;63173;49.086;33.418;2023-03-03T00:05:49;14.55;;;4.70;;
74577;SDS011;63173;49.086;33.418;2023-03-03T00:08:15;13.15;;;4.57;;
74577;SDS011;63173;49.086;33.418;2023-03-03T00:10:41;10.15;;;4.22;;
74577;SDS011;63173;49.086;33.418;2023-03-03T00:13:16;13.43;;;4.60;;
74577;SDS011;63173;49.086;33.418;2023-03-03T00:15:44;10.70;;;4.85;;
74577;SDS011;63173;49.086;33.418;2023-03-03T00:18:32;11.52;;;4.70;;
74577;SDS011;63173;49.086;33.418;2023-03-03T00:21:00;13.07;;;4.30;;
74577;SDS011;63173;49.086;33.418;2023-03-03T00:26:00;16.88;;;5.70;;
74577;SDS011;63173;49.086;33.418;2023-03-03T00:28:27;16.58;;;5.25;;
74577;SDS011;63173;49.086;33.418;2023-03-03T00:30:55;15.43;;;5.47;;
74577;SDS011;63173;49.086;33.418;2023-03-03T00:36:20;14.55;;;5.70;;
74577;SDS011;63173;49.086;33.418;2023-03-03T00:38:52;15.18;;;4.78;;
74577;SDS011;63173;49.086;33.418;2023-03-03T00:41:23;15.98;;;5.38;;
74577;SDS011;63173;49.086;33.418;2023-03-03T00:43:50;11.68;;;5.43;;
74577;SDS011;63173;49.086;33.418;2023-03-03T00:46:20;11.57;;;4.60;;
74577;SDS011;63173;49.086;33.418;2023-03-03T00:48:47;13.10;;;4.85;;
74577;SDS011;63173;49.086;33.418;2023-03-03T00:51:30;12.32;;;5.05;;
74577;SDS011;63173;49.086;33.418;2023-03-03T00:53:58;10.77;;;4.70;;
74577;SDS011;63173;49.086;33.418;2023-03-03T00:56:23;16.63;;;5.40;;
74577;SDS011;63173;49.086;33.418;2023-03-03T00:58:49;13.85;;;5.20;;
74577;SDS011;63173;49.086;33.418;2023-03-03T01:01:16;13.63;;;5.15;;
74577;SDS011;63173;49.086;33.418;2023-03-03T01:03:42;10.95;;;4.88;;
74577;SDS011;63173;49.086;33.418;2023-03-03T01:06:08;12.43;;;5.35;;
74577;SDS011;63173;49.086;33.418;2023-03-03T01:08:34;11.52;;;5.13;;
74577;SDS011;63173;49.086;33.418;2023-03-03T01:11:05;12.45;;;5.07;;
74577;SDS011;63173;49.086;33.418;2023-03-03T01:13:35;15.48;;;5.10;;
74577;SDS011;63173;49.086;33.418;2023-03-03T01:16:04;12.30;;;5.25;;
74577;SDS011;63173;49.086;33.418;2023-03-03T01:18:29;14.90;;;5.50;;
74577;SDS011;63173;49.086;33.418;2023-03-03T01:20:55;11.38;;;5.20;;
74577;SDS011;63173;49.086;33.418;2023-03-03T01:23:21;13.25;;;5.75;;
74577;SDS011;63173;49.086;33.418;2023-03-03T01:25:46;10.60;;;5.07;;
74577;SDS011;63173;49.086;33.418;2023-03-03T01:28:11;12.38;;;4.80;;
74577;SDS011;63173;49.086;33.418;2023-03-03T01:30:37;11.75;;;5.85;;
74577;SDS011;63173;49.086;33.418;2023-03-03T01:33:03;16.45;;;5.97;;
74577;SDS011;63173;49.086;33.418;2023-03-03T01:35:28;15.65;;;5.93;;
74577;SDS011;63173;49.086;33.418;2023-03-03T01:37:54;12.68;;;5.20;;
74577;SDS011;63173;49.086;33.418;2023-03-03T01:40:21;17.10;;;5.93;;
74577;SDS011;63173;49.086;33.418;2023-03-03T01:42:48;16.40;;;6.25;;
74577;SDS011;63173;49.086;33.418;2023-03-03T01:45:18;16.88;;;6.63;;
74577;SDS011;63173;49.086;33.418;2023-03-03T01:50:33;15.07;;;6.43;;
74577;SDS011;63173;49.086;33.418;2023-03-03T01:53:05;15.60;;;5.40;;
74577;SDS011;63173;49.086;33.418;2023-03-03T01:55:42;12.40;;;5.75;;
74577;SDS011;63173;49.086;33.418;2023-03-03T01:58:17;14.10;;;6.20;;
74577;SDS011;63173;49.086;33.418;2023-03-03T02:00:55;20.48;;;6.40;;
74577;SDS011;63173;49.086;33.418;2023-03-03T02:03:25;18.40;;;6.40;;
74577;SDS011;63173;49.086;33.418;2023-03-03T02:05:52;16.17;;;6.10;;
74577;SDS011;63173;49.086;33.418;2023-03-03T02:08:22;18.75;;;7.10;;
74577;SDS011;63173;49.086;33.418;2023-03-03T02:10:54;14.02;;;6.25;;
74577;SDS011;63173;49.086;33.418;2023-03-03T02:13:21;18.02;;;6.47;;
74577;SDS011;63173;49.086;33.418;2023-03-03T02:15:47;18.15;;;6.82;;
74577;SDS011;63173;49.086;33.418;2023-03-03T02:18:13;16.95;;;6.85;;
74577;SDS011;63173;49.086;33.418;2023-03-03T02:23:16;13.93;;;6.22;;
74577;SDS011;63173;49.086;33.418;2023-03-03T02:28:20;19.25;;;6.95;;
74577;SDS011;63173;49.086;33.418;2023-03-03T02:30:46;17.30;;;7.22;;
74577;SDS011;63173;49.086;33.418;2023-03-03T02:33:12;20.52;;;7.95;;
74577;SDS011;63173;49.086;33.418;2023-03-03T02:35:38;18.77;;;7.20;;
74577;SDS011;63173;49.086;33.418;2023-03-03T02:44:00;16.25;;;7.00;;
74577;SDS011;63173;49.086;33.418;2023-03-03T02:46:31;19.88;;;7.72;;
74577;SDS011;63173;49.086;33.418;2023-03-03T02:48:58;17.08;;;7.55;;
74577;SDS011;63173;49.086;33.418;2023-03-03T02:51:24;21.65;;;7.57;;
74577;SDS011;63173;49.086;33.418;2023-03-03T02:53:50;18.75;;;8.05;;
74577;SDS011;63173;49.086;33.418;2023-03-03T02:56:15;15.98;;;7.35;;
74577;SDS011;63173;49.086;33.418;2023-03-03T02:58:41;17.02;;;6.93;;
74577;SDS011;63173;49.086;33.418;2023-03-03T03:01:06;19.67;;;7.57;;
74577;SDS011;63173;49.086;33.418;2023-03-03T03:03:32;18.73;;;8.18;;
74577;SDS011;63173;49.086;33.418;2023-03-03T03:05:57;15.15;;;6.75;;
74577;SDS011;63173;49.086;33.418;2023-03-03T03:08:23;20.45;;;7.93;;
74577;SDS011;63173;49.086;33.418;2023-03-03T03:10:49;19.33;;;8.10;;
74577;SDS011;63173;49.086;33.418;2023-03-03T03:13:14;20.27;;;7.65;;
74577;SDS011;63173;49.086;33.418;2023-03-03T03:15:40;18.13;;;7.53;;
74577;SDS011;63173;49.086;33.418;2023-03-03T03:18:05;17.15;;;7.30;;
74577;SDS011;63173;49.086;33.418;2023-03-03T03:20:34;19.30;;;7.80;;
74577;SDS011;63173;49.086;33.418;2023-03-03T03:23:01;18.38;;;7.53;;
74577;SDS011;63173;49.086;33.418;2023-03-03T03:25:27;21.38;;;8.75;;
74577;SDS011;63173;49.086;33.418;2023-03-03T03:27:52;21.58;;;7.43;;
74577;SDS011;63173;49.086;33.418;2023-03-03T03:30:17;20.90;;;8.50;;
74577;SDS011;63173;49.086;33.418;2023-03-03T03:32:44;16.85;;;7.25;;
74577;SDS011;63173;49.086;33.418;2023-03-03T03:35:10;20.52;;;8.18;;
74577;SDS011;63173;49.086;33.418;2023-03-03T03:37:36;19.55;;;8.10;;
74577;SDS011;63173;49.086;33.418;2023-03-03T03:40:01;18.85;;;8.25;;
74577;SDS011;63173;49.086;33.418;2023-03-03T03:42:27;21.50;;;8.55;;
74577;SDS011;63173;49.086;33.418;2023-03-03T03:44:52;22.15;;;9.18;;
74577;SDS011;63173;49.086;33.418;2023-03-03T03:47:18;22.40;;;8.93;;
74577;SDS011;63173;49.086;33.418;2023-03-03T03:49:43;21.92;;;8.25;;
74577;SDS011;63173;49.086;33.418;2023-03-03T03:52:08;21.50;;;9.23;;
74577;SDS011;63173;49.086;33.418;2023-03-03T03:54:34;23.20;;;9.27;;
74577;SDS011;63173;49.086;33.418;2023-03-03T03:56:59;22.48;;;9.35;;
74577;SDS011;63173;49.086;33.418;2023-03-03T03:59:25;21.98;;;8.35;;
74577;SDS011;63173;49.086;33.418;2023-03-03T04:01:50;21.65;;;8.45;;
74577;SDS011;63173;49.086;33.418;2023-03-03T04:04:16;19.30;;;8.40;;
74577;SDS011;63173;49.086;33.418;2023-03-03T04:06:41;25.05;;;9.50;;
74577;SDS011;63173;49.086;33.418;2023-03-03T04:09:07;22.77;;;9.90;;
74577;SDS011;63173;49.086;33.418;2023-03-03T04:11:32;21.30;;;9.32;;
74577;SDS011;63173;49.086;33.418;2023-03-03T04:13:58;21.80;;;8.48;;
74577;SDS011;63173;49.086;33.418;2023-03-03T04:16:23;21.17;;;8.82;;
74577;SDS011;63173;49.086;33.418;2023-03-03T04:18:49;22.80;;;9.30;;
74577;SDS011;63173;49.086;33.418;2023-03-03T04:21:14;17.98;;;8.07;;
74577;SDS011;63173;49.086;33.418;2023-03-03T04:23:40;22.58;;;8.57;;
74577;SDS011;63173;49.086;33.418;2023-03-03T04:26:06;22.83;;;8.68;;
74577;SDS011;63173;49.086;33.418;2023-03-03T04:28:32;29.88;;;12.07;;
74577;SDS011;63173;49.086;33.418;2023-03-03T04:30:58;27.75;;;10.38;;
74577;SDS011;63173;49.086;33.418;2023-03-03T04:33:23;25.08;;;10.45;;
74577;SDS011;63173;49.086;33.418;2023-03-03T04:35:49;24.80;;;10.05;;
74577;SDS011;63173;49.086;33.418;2023-03-03T04:38:15;25.77;;;11.02;;
74577;SDS011;63173;49.086;33.418;2023-03-03T04:40:41;24.92;;;10.15;;
74577;SDS011;63173;49.086;33.418;2023-03-03T04:43:06;170.02;;;57.65;;
74577;SDS011;63173;49.086;33.418;2023-03-03T04:45:32;67.60;;;24.98;;
74577;SDS011;63173;49.086;33.418;2023-03-03T04:47:57;56.75;;;20.05;;
74577;SDS011;63173;49.086;33.418;2023-03-03T04:50:23;28.35;;;11.18;;
74577;SDS011;63173;49.086;33.418;2023-03-03T04:52:48;32.40;;;13.10;;
74577;SDS011;63173;49.086;33.418;2023-03-03T04:55:14;39.75;;;14.02;;
74577;SDS011;63173;49.086;33.418;2023-03-03T04:57:40;34.22;;;14.25;;
74577;SDS011;63173;49.086;33.418;2023-03-03T05:00:07;43.80;;;15.10;;
74577;SDS011;63173;49.086;33.418;2023-03-03T05:02:33;41.75;;;16.02;;
74577;SDS011;63173;49.086;33.418;2023-03-03T05:04:58;34.90;;;12.52;;
74577;SDS011;63173;49.086;33.418;2023-03-03T05:07:24;25.35;;;10.60;;
74577;SDS011;63173;49.086;33.418;2023-03-03T05:09:49;34.75;;;11.75;;
74577;SDS011;63173;49.086;33.418;2023-03-03T05:12:15;28.00;;;11.68;;
74577;SDS011;63173;49.086;33.418;2023-03-03T05:14:41;29.38;;;11.68;;
74577;SDS011;63173;49.086;33.418;2023-03-03T05:17:07;28.73;;;11.10;;
74577;SDS011;63173;49.086;33.418;2023-03-03T05:19:33;26.23;;;11.05;;
74577;SDS011;63173;49.086;33.418;2023-03-03T05:21:59;27.23;;;11.40;;
74577;SDS011;63173;49.086;33.418;2023-03-03T05:24:24;32.40;;;13.68;;
74577;SDS011;63173;49.086;33.418;2023-03-03T05:26:50;36.33;;;13.38;;
74577;SDS011;63173;49.086;33.418;2023-03-03T05:29:15;56.88;;;18.42;;
74577;SDS011;63173;49.086;33.418;2023-03-03T05:31:40;107.85;;;36.20;;
74577;SDS011;63173;49.086;33.418;2023-03-03T05:34:06;36.78;;;14.95;;
74577;SDS011;63173;49.086;33.418;2023-03-03T05:36:31;39.33;;;14.90;;
74577;SDS011;63173;49.086;33.418;2023-03-03T05:38:57;36.97;;;16.02;;
74577;SDS011;63173;49.086;33.418;2023-03-03T05:41:22;35.08;;;16.23;;
74577;SDS011;63173;49.086;33.418;2023-03-03T05:43:48;29.40;;;12.45;;
74577;SDS011;63173;49.086;33.418;2023-03-03T05:46:13;33.33;;;13.52;;
74577;SDS011;63173;49.086;33.418;2023-03-03T05:48:38;39.55;;;18.33;;
74577;SDS011;63173;49.086;33.418;2023-03-03T05:51:04;51.95;;;22.70;;
74577;SDS011;63173;49.086;33.418;2023-03-03T05:53:29;33.97;;;15.40;;
74577;SDS011;63173;49.086;33.418;2023-03-03T05:55:55;36.47;;;16.42;;
74577;SDS011;63173;49.086;33.418;2023-03-03T05:58:21;44.03;;;16.80;;
74577;SDS011;63173;49.086;33.418;2023-03-03T06:00:46;27.95;;;12.32;;
74577;SDS011;63173;49.086;33.418;2023-03-03T06:03:12;30.23;;;13.98;;
74577;SDS011;63173;49.086;33.418;2023-03-03T06:05:37;24.73;;;10.98;;
74577;SDS011;63173;49.086;33.418;2023-03-03T06:08:03;32.63;;;13.35;;
74577;SDS011;63173;49.086;33.418;2023-03-03T06:10:29;27.48;;;12.07;;
74577;SDS011;63173;49.086;33.418;2023-03-03T06:12:54;37.05;;;17.02;;
74577;SDS011;63173;49.086;33.418;2023-03-03T06:15:23;34.47;;;14.98;;
74577;SDS011;63173;49.086;33.418;2023-03-03T06:17:48;36.67;;;15.43;;
74577;SDS011;63173;49.086;33.418;2023-03-03T06:20:14;34.33;;;14.32;;
74577;SDS011;63173;49.086;33.418;2023-03-03T06:22:40;37.70;;;16.42;;
74577;SDS011;63173;49.086;33.418;2023-03-03T06:25:05;31.58;;;13.52;;
74577;SDS011;63173;49.086;33.418;2023-03-03T06:27:32;26.77;;;12.52;;
74577;SDS011;63173;49.086;33.418;2023-03-03T06:29:58;34.58;;;14.30;;
74577;SDS011;63173;49.086;33.418;2023-03-03T06:32:23;36.25;;;15.80;;
74577;SDS011;63173;49.086;33.418;2023-03-03T06:34:48;36.78;;;16.20;;
74577;SDS011;63173;49.086;33.418;2023-03-03T06:37:14;28.95;;;11.40;;
74577;SDS011;63173;49.086;33.418;2023-03-03T06:39:40;31.80;;;13.85;;
74577;SDS011;63173;49.086;33.418;2023-03-03T06:42:06;31.95;;;13.68;;
74577;SDS011;63173;49.086;33.418;2023-03-03T06:44:33;35.25;;;14.50;;
74577;SDS011;63173;49.086;33.418;2023-03-03T06:46:59;29.40;;;11.50;;
74577;SDS011;63173;49.086;33.418;2023-03-03T06:49:25;33.65;;;13.82;;
74577;SDS011;63173;49.086;33.418;2023-03-03T06:51:50;32.00;;;13.77;;
74577;SDS011;63173;49.086;33.418;2023-03-03T06:54:17;41.70;;;17.15;;
74577;SDS011;63173;49.086;33.418;2023-03-03T06:56:48;33.90;;;14.48;;
74577;SDS011;63173;49.086;33.418;2023-03-03T06:59:18;45.83;;;18.20;;
74577;SDS011;63173;49.086;33.418;2023-03-03T07:01:46;32.72;;;13.75;;
74577;SDS011;63173;49.086;33.418;2023-03-03T07:09:52;34.33;;;14.93;;
74577;SDS011;63173;49.086;33.418;2023-03-03T07:12:23;52.42;;;23.30;;
74577;SDS011;63173;49.086;33.418;2023-03-03T07:15:15;38.10;;;17.98;;
74577;SDS011;63173;49.086;33.418;2023-03-03T07:17:48;38.17;;;14.60;;
74577;SDS011;63173;49.086;33.418;2023-03-03T07:20:20;37.95;;;14.60;;
74577;SDS011;63173;49.086;33.418;2023-03-03T07:22:48;33.33;;;14.68;;
74577;SDS011;63173;49.086;33.418;2023-03-03T07:25:21;29.30;;;12.90;;
74577;SDS011;63173;49.086;33.418;2023-03-03T07:30:51;35.72;;;15.77;;
74577;SDS011;63173;49.086;33.418;2023-03-03T07:33:19;38.22;;;17.05;;
74577;SDS011;63173;49.086;33.418;2023-03-03T07:35:54;44.38;;;20.50;;
74577;SDS011;63173;49.086;33.418;2023-03-03T07:41:03;47.22;;;22.08;;
74577;SDS011;63173;49.086;33.418;2023-03-03T07:43:35;34.45;;;15.35;;
74577;SDS011;63173;49.086;33.418;2023-03-03T07:48:43;28.60;;;12.97;;
74577;SDS011;63173;49.086;33.418;2023-03-03T07:53:46;29.00;;;12.80;;
74577;SDS011;63173;49.086;33.418;2023-03-03T07:58:50;28.67;;;12.70;;
74577;SDS011;63173;49.086;33.418;2023-03-03T08:04:08;27.98;;;11.50;;
74577;SDS011;63173;49.086;33.418;2023-03-03T08:11:52;27.40;;;11.02;;
74577;SDS011;63173;49.086;33.418;2023-03-03T08:14:29;24.98;;;10.57;;
74577;SDS011;63173;49.086;33.418;2023-03-03T08:16:56;22.65;;;10.68;;
74577;SDS011;63173;49.086;33.418;2023-03-03T08:19:22;21.45;;;9.10;;
74577;SDS011;63173;49.086;33.418;2023-03-03T08:21:48;27.02;;;10.20;;
74577;SDS011;63173;49.086;33.418;2023-03-03T08:24:14;26.70;;;10.40;;
74577;SDS011;63173;49.086;33.418;2023-03-03T08:26:39;21.90;;;10.13;;
74577;SDS011;63173;49.086;33.418;2023-03-03T08:29:05;26.40;;;10.93;;
74577;SDS011;63173;49.086;33.418;2023-03-03T08:31:30;25.83;;;11.80;;
74577;SDS011;63173;49.086;33.418;2023-03-03T08:33:56;25.27;;;11.07;;
74577;SDS011;63173;49.086;33.418;2023-03-03T08:36:22;29.42;;;11.65;;
74577;SDS011;63173;49.086;33.418;2023-03-03T08:38:48;25.20;;;10.50;;
74577;SDS011;63173;49.086;33.418;2023-03-03T08:41:13;24.40;;;10.85;;
74577;SDS011;63173;49.086;33.418;2023-03-03T08:43:39;23.95;;;10.25;;
74577;SDS011;63173;49.086;33.418;2023-03-03T08:46:05;23.65;;;10.32;;
74577;SDS011;63173;49.086;33.418;2023-03-03T08:48:34;22.17;;;9.73;;
74577;SDS011;63173;49.086;33.418;2023-03-03T08:51:00;25.42;;;10.60;;
74577;SDS011;63173;49.086;33.418;2023-03-03T08:53:26;20.85;;;9.07;;
74577;SDS011;63173;49.086;33.418;2023-03-03T08:55:52;27.45;;;9.73;;
74577;SDS011;63173;49.086;33.418;2023-03-03T08:58:18;20.75;;;8.40;;
74577;SDS011;63173;49.086;33.418;2023-03-03T09:00:45;17.50;;;7.70;;
74577;SDS011;63173;49.086;33.418;2023-03-03T09:03:11;20.65;;;8.23;;
74577;SDS011;63173;49.086;33.418;2023-03-03T09:05:37;21.08;;;9.57;;
74577;SDS011;63173;49.086;33.418;2023-03-03T09:08:04;19.35;;;8.85;;
74577;SDS011;63173;49.086;33.418;2023-03-03T09:10:32;20.50;;;7.63;;
74577;SDS011;63173;49.086;33.418;2023-03-03T09:13:03;19.30;;;8.75;;
74577;SDS011;63173;49.086;33.418;2023-03-03T09:15:36;23.83;;;8.90;;
74577;SDS011;63173;49.086;33.418;2023-03-03T09:18:48;21.13;;;8.52;;
74577;SDS011;63173;49.086;33.418;2023-03-03T09:21:01;17.63;;;7.75;;
74577;SDS011;63173;49.086;33.418;2023-03-03T09:23:30;19.27;;;7.53;;
74577;SDS011;63173;49.086;33.418;2023-03-03T09:26:46;16.38;;;7.07;;
74577;SDS011;63173;49.086;33.418;2023-03-03T09:28:46;16.73;;;7.93;;
74577;SDS011;63173;49.086;33.418;2023-03-03T09:31:23;21.55;;;9.18;;
74577;SDS011;63173;49.086;33.418;2023-03-03T09:33:51;18.63;;;8.05;;
74577;SDS011;63173;49.086;33.418;2023-03-03T09:36:25;17.95;;;7.47;;
74577;SDS011;63173;49.086;33.418;2023-03-03T09:38:54;13.00;;;6.00;;
74577;SDS011;63173;49.086;33.418;2023-03-03T10:00:58;15.45;;;5.82;;
74577;SDS011;63173;49.086;33.418;2023-03-03T10:07:25;20.95;;;8.02;;
74577;SDS011;63173;49.086;33.418;2023-03-03T10:13:18;16.27;;;6.53;;
74577;SDS011;63173;49.086;33.418;2023-03-03T10:15:25;15.65;;;6.10;;
74577;SDS011;63173;49.086;33.418;2023-03-03T10:37:20;17.15;;;6.75;;
74577;SDS011;63173;49.086;33.418;2023-03-03T10:40:07;24.52;;;8.93;;
74577;SDS011;63173;49.086;33.418;2023-03-03T10:53:24;12.27;;;5.97;;
74577;SDS011;63173;49.086;33.418;2023-03-03T10:56:04;18.45;;;7.28;;
74577;SDS011;63173;49.086;33.418;2023-03-03T10:59:28;22.10;;;8.38;;
74577;SDS011;63173;49.086;33.418;2023-03-03T11:07:26;16.75;;;6.90;;
74577;SDS011;63173;49.086;33.418;2023-03-03T11:10:05;18.95;;;7.13;;
74577;SDS011;63173;49.086;33.418;2023-03-03T11:15:40;19.80;;;7.43;;
74577;SDS011;63173;49.086;33.418;2023-03-03T11:18:48;21.42;;;8.18;;
74577;SDS011;63173;49.086;33.418;2023-03-03T11:21:34;16.92;;;7.30;;
74577;SDS011;63173;49.086;33.418;2023-03-03T11:29:29;16.83;;;7.30;;
74577;SDS011;63173;49.086;33.418;2023-03-03T11:31:59;18.33;;;7.80;;
74577;SDS011;63173;49.086;33.418;2023-03-03T11:37:28;17.55;;;8.27;;
74577;SDS011;63173;49.086;33.418;2023-03-03T11:40:13;21.65;;;8.38;;
74577;SDS011;63173;49.086;33.418;2023-03-03T11:42:47;20.75;;;8.35;;
74577;SDS011;63173;49.086;33.418;2023-03-03T11:45:21;20.15;;;7.53;;
74577;SDS011;63173;49.086;33.418;2023-03-03T11:51:06;20.23;;;8.73;;
74577;SDS011;63173;49.086;33.418;2023-03-03T11:53:39;16.70;;;7.57;;
74577;SDS011;63173;49.086;33.418;2023-03-03T11:56:22;21.98;;;8.60;;
74577;SDS011;63173;49.086;33.418;2023-03-03T12:04:12;18.97;;;7.30;;
74577;SDS011;63173;49.086;33.418;2023-03-03T12:09:48;17.20;;;7.18;;
74577;SDS011;63173;49.086;33.418;2023-03-03T12:12:28;23.88;;;8.57;;
74577;SDS011;63173;49.086;33.418;2023-03-03T12:26:02;15.68;;;7.35;;
74577;SDS011;63173;49.086;33.418;2023-03-03T12:28:46;19.80;;;8.25;;
74577;SDS011;63173;49.086;33.418;2023-03-03T12:34:36;21.65;;;7.43;;
74577;SDS011;63173;49.086;33.418;2023-03-03T12:37:16;21.42;;;7.50;;
74577;SDS011;63173;49.086;33.418;2023-03-03T12:40:20;16.23;;;6.80;;
74577;SDS011;63173;49.086;33.418;2023-03-03T12:45:46;16.60;;;7.03;;
74577;SDS011;63173;49.086;33.418;2023-03-03T12:48:27;21.00;;;7.78;;
74577;SDS011;63173;49.086;33.418;2023-03-03T12:54:42;23.58;;;7.25;;
74577;SDS011;63173;49.086;33.418;2023-03-03T12:56:52;19.83;;;8.82;;
74577;SDS011;63173;49.086;33.418;2023-03-03T13:02:01;20.98;;;8.88;;
74577;SDS011;63173;49.086;33.418;2023-03-03T13:10:17;17.35;;;7.20;;
74577;SDS011;63173;49.086;33.418;2023-03-03T13:15:41;17.80;;;7.90;;
74577;SDS011;63173;49.086;33.418;2023-03-03T13:18:27;18.50;;;8.15;;
74577;SDS011;63173;49.086;33.418;2023-03-03T13:23:47;17.05;;;7.82;;
74577;SDS011;63173;49.086;33.418;2023-03-03T13:26:25;16.65;;;7.65;;
74577;SDS011;63173;49.086;33.418;2023-03-03T13:28:55;14.13;;;6.40;;
74577;SDS011;63173;49.086;33.418;2023-03-03T13:31:45;17.52;;;6.95;;
74577;SDS011;63173;49.086;33.418;2023-03-03T13:34:18;17.30;;;7.35;;
74577;SDS011;63173;49.086;33.418;2023-03-03T13:37:00;17.10;;;6.45;;
74577;SDS011;63173;49.086;33.418;2023-03-03T13:39:31;19.17;;;7.82;;
74577;SDS011;63173;49.086;33.418;2023-03-03T13:42:03;17.52;;;7.90;;
74577;SDS011;63173;49.086;33.418;2023-03-03T13:44:38;17.83;;;7.45;;
74577;SDS011;63173;49.086;33.418;2023-03-03T13:47:13;20.38;;;9.00;;
74577;SDS011;63173;49.086;33.418;2023-03-03T13:52:20;18.80;;;8.65;;
74577;SDS011;63173;49.086;33.418;2023-03-03T14:03:15;21.05;;;8.45;;
74577;SDS011;63173;49.086;33.418;2023-03-03T14:05:43;21.20;;;8.80;;
74577;SDS011;63173;49.086;33.418;2023-03-03T14:11:02;21.60;;;7.82;;
74577;SDS011;63173;49.086;33.418;2023-03-03T14:13:43;18.00;;;8.27;;
74577;SDS011;63173;49.086;33.418;2023-03-03T14:22:02;22.75;;;8.63;;
74577;SDS011;63173;49.086;33.418;2023-03-03T14:30:26;27.85;;;11.35;;
74577;SDS011;63173;49.086;33.418;2023-03-03T14:35:32;28.38;;;11.05;;
74577;SDS011;63173;49.086;33.418;2023-03-03T14:38:07;21.30;;;8.80;;
74577;SDS011;63173;49.086;33.418;2023-03-03T14:40:40;21.33;;;8.43;;
74577;SDS011;63173;49.086;33.418;2023-03-03T14:46:34;26.23;;;10.68;;
74577;SDS011;63173;49.086;33.418;2023-03-03T14:49:04;21.05;;;9.50;;
74577;SDS011;63173;49.086;33.418;2023-03-03T14:51:42;22.40;;;9.68;;
74577;SDS011;63173;49.086;33.418;2023-03-03T14:54:18;20.52;;;9.52;;
74577;SDS011;63173;49.086;33.418;2023-03-03T14:59:26;27.60;;;11.18;;
74577;SDS011;63173;49.086;33.418;2023-03-03T15:01:56;26.85;;;11.25;;
74577;SDS011;63173;49.086;33.418;2023-03-03T15:06:55;38.92;;;13.52;;
74577;SDS011;63173;49.086;33.418;2023-03-03T15:12:24;33.67;;;12.02;;
74577;SDS011;63173;49.086;33.418;2023-03-03T15:17:39;24.80;;;9.63;;
74577;SDS011;63173;49.086;33.418;2023-03-03T15:20:20;28.50;;;11.95;;
74577;SDS011;63173;49.086;33.418;2023-03-03T15:26:01;21.75;;;8.65;;
74577;SDS011;63173;49.086;33.418;2023-03-03T15:28:35;26.70;;;11.05;;
74577;SDS011;63173;49.086;33.418;2023-03-03T15:36:42;30.33;;;12.43;;
74577;SDS011;63173;49.086;33.418;2023-03-03T15:39:16;19.08;;;8.23;;
74577;SDS011;63173;49.086;33.418;2023-03-03T15:55:40;23.42;;;9.65;;
74577;SDS011;63173;49.086;33.418;2023-03-03T16:03:38;27.75;;;10.43;;
74577;SDS011;63173;49.086;33.418;2023-03-03T16:15:06;19.48;;;7.90;;
74577;SDS011;63173;49.086;33.418;2023-03-03T16:37:03;24.65;;;9.93;;
74577;SDS011;63173;49.086;33.418;2023-03-03T16:39:55;27.02;;;11.00;;
74577;SDS011;63173;49.086;33.418;2023-03-03T16:42:39;26.05;;;10.93;;
74577;SDS011;63173;49.086;33.418;2023-03-03T16:50:33;22.42;;;9.23;;
74577;SDS011;63173;49.086;33.418;2023-03-03T16:56:20;24.35;;;10.50;;
74577;SDS011;63173;49.086;33.418;2023-03-03T17:03:58;19.30;;;8.30;;
74577;SDS011;63173;49.086;33.418;2023-03-03T17:06:35;22.83;;;9.73;;
74577;SDS011;63173;49.086;33.418;2023-03-03T17:28:32;18.92;;;7.93;;
74577;SDS011;63173;49.086;33.418;2023-03-03T17:34:02;22.92;;;10.00;;
74577;SDS011;63173;49.086;33.418;2023-03-03T17:42:32;22.83;;;9.30;;
74577;SDS011;63173;49.086;33.418;2023-03-03T18:01:15;24.17;;;9.50;;
74577;SDS011;63173;49.086;33.418;2023-03-03T18:12:41;25.20;;;10.20;;
74577;SDS011;63173;49.086;33.418;2023-03-03T18:15:13;23.90;;;10.35;;
74577;SDS011;63173;49.086;33.418;2023-03-03T18:17:46;20.48;;;9.10;;
74577;SDS011;63173;49.086;33.418;2023-03-03T18:23:24;24.48;;;10.55;;
74577;SDS011;63173;49.086;33.418;2023-03-03T18:25:56;26.30;;;10.15;;
74577;SDS011;63173;49.086;33.418;2023-03-03T18:28:45;23.25;;;10.15;;
74577;SDS011;63173;49.086;33.418;2023-03-03T18:31:23;24.90;;;10.55;;
74577;SDS011;63173;49.086;33.418;2023-03-03T18:34:07;21.13;;;10.93;;
74577;SDS011;63173;49.086;33.418;2023-03-03T18:36:56;29.98;;;11.15;;
74577;SDS011;63173;49.086;33.418;2023-03-03T18:42:34;33.58;;;12.23;;
74577;SDS011;63173;49.086;33.418;2023-03-03T18:47:58;32.75;;;12.60;;
74577;SDS011;63173;49.086;33.418;2023-03-03T18:53:18;26.10;;;10.57;;
74577;SDS011;63173;49.086;33.418;2023-03-03T19:00:41;30.33;;;11.70;;
74577;SDS011;63173;49.086;33.418;2023-03-03T19:06:54;22.50;;;9.95;;
74577;SDS011;63173;49.086;33.418;2023-03-03T19:09:17;24.23;;;9.80;;
74577;SDS011;63173;49.086;33.418;2023-03-03T19:14:43;25.80;;;9.85;;
74577;SDS011;63173;49.086;33.418;2023-03-03T19:20:01;22.67;;;10.40;;
74577;SDS011;63173;49.086;33.418;2023-03-03T19:22:38;24.52;;;8.98;;
74577;SDS011;63173;49.086;33.418;2023-03-03T19:36:05;22.13;;;8.95;;
74577;SDS011;63173;49.086;33.418;2023-03-03T19:49:44;20.73;;;9.57;;
74577;SDS011;63173;49.086;33.418;2023-03-03T19:52:22;22.65;;;9.75;;
74577;SDS011;63173;49.086;33.418;2023-03-03T19:55:00;21.15;;;10.00;;
74577;SDS011;63173;49.086;33.418;2023-03-03T19:57:41;23.85;;;9.52;;
74577;SDS011;63173;49.086;33.418;2023-03-03T20:06:03;19.40;;;8.13;;
74577;SDS011;63173;49.086;33.418;2023-03-03T20:16:44;20.25;;;8.30;;
74577;SDS011;63173;49.086;33.418;2023-03-03T20:24:37;20.48;;;8.98;;
74577;SDS011;63173;49.086;33.418;2023-03-03T20:27:15;17.25;;;7.80;;
74577;SDS011;63173;49.086;33.418;2023-03-03T20:49:21;21.38;;;9.45;;
74577;SDS011;63173;49.086;33.418;2023-03-03T20:55:12;24.45;;;9.00;;
74577;SDS011;63173;49.086;33.418;2023-03-03T21:05:37;16.10;;;7.85;;
74577;SDS011;63173;49.086;33.418;2023-03-03T21:08:19;16.90;;;8.23;;
74577;SDS011;63173;49.086;33.418;2023-03-03T21:10:44;21.38;;;9.00;;
74577;SDS011;63173;49.086;33.418;2023-03-03T21:13:25;22.02;;;9.15;;
74577;SDS011;63173;49.086;33.418;2023-03-03T21:16:51;20.83;;;8.57;;
74577;SDS011;63173;49.086;33.418;2023-03-03T21:19:06;18.58;;;8.00;;
74577;SDS011;63173;49.086;33.418;2023-03-03T21:21:39;24.55;;;8.35;;
74577;SDS011;63173;49.086;33.418;2023-03-03T21:24:06;16.10;;;8.05;;
74577;SDS011;63173;49.086;33.418;2023-03-03T21:29:22;17.83;;;7.90;;
74577;SDS011;63173;49.086;33.418;2023-03-03T21:31:52;21.73;;;9.23;;
74577;SDS011;63173;49.086;33.418;2023-03-03T21:36:49;19.85;;;9.27;;
74577;SDS011;63173;49.086;33.418;2023-03-03T21:44:32;18.63;;;8.65;;
74577;SDS011;63173;49.086;33.418;2023-03-03T21:46:57;19.75;;;8.48;;
74577;SDS011;63173;49.086;33.418;2023-03-03T21:49:23;21.52;;;8.95;;
74577;SDS011;63173;49.086;33.418;2023-03-03T21:51:48;22.05;;;8.98;;
74577;SDS011;63173;49.086;33.418;2023-03-03T21:54:14;18.52;;;8.55;;